sensor_id;sensor_type;location;lat;lon;timestamp;pressure;altitude;pressure_sealevel;temperature;humidity
11345;BME280;5727;42.600;23.028;2023-04-26T00:02:24;92744.25;;;9.43;100.00
11345;BME280;5727;42.600;23.028;2023-04-26T00:04:52;92744.91;;;9.40;100.00
11345;BME280;5727;42.600;23.028;2023-04-26T00:07:20;92743.00;;;9.37;100.00
11345;BME280;5727;42.600;23.028;2023-04-26T00:09:50;92744.41;;;9.35;100.00
11345;BME280;5727;42.600;23.028;2023-04-26T00:12:18;92735.66;;;9.27;100.00
11345;BME280;5727;42.600;23.028;2023-04-26T00:14:44;92734.84;;;9.23;100.00
11345;BME280;5727;42.600;23.028;2023-04-26T00:17:11;92732.06;;;9.16;100.00
11345;BME280;5727;42.600;23.028;2023-04-26T00:19:38;92725.59;;;9.10;100.00
11345;BME280;5727;42.600;23.028;2023-04-26T00:22:05;92732.94;;;9.04;100.00
11345;BME280;5727;42.600;23.028;2023-04-26T00:24:33;92736.31;;;8.89;100.00
11345;BME280;5727;42.600;23.028;2023-04-26T00:27:01;92734.28;;;8.83;100.00
11345;BME280;5727;42.600;23.028;2023-04-26T00:29:33;92732.44;;;8.83;100.00
11345;BME280;5727;42.600;23.028;2023-04-26T00:32:00;92731.06;;;8.58;100.00
11345;BME280;5727;42.600;23.028;2023-04-26T00:34:31;92728.19;;;8.63;100.00
11345;BME280;5727;42.600;23.028;2023-04-26T00:36:58;92730.03;;;8.63;100.00
11345;BME280;5727;42.600;23.028;2023-04-26T00:39:25;92721.91;;;8.64;100.00
11345;BME280;5727;42.600;23.028;2023-04-26T00:41:51;92726.34;;;8.64;100.00
11345;BME280;5727;42.600;23.028;2023-04-26T00:44:20;92719.28;;;8.64;100.00
11345;BME280;5727;42.600;23.028;2023-04-26T00:46:47;92718.88;;;8.62;100.00
11345;BME280;5727;42.600;23.028;2023-04-26T00:49:16;92729.31;;;8.62;100.00
11345;BME280;5727;42.600;23.028;2023-04-26T00:51:44;92730.66;;;8.56;100.00
11345;BME280;5727;42.600;23.028;2023-04-26T00:54:11;92728.44;;;8.43;100.00
11345;BME280;5727;42.600;23.028;2023-04-26T00:56:39;92732.66;;;8.47;100.00
11345;BME280;5727;42.600;23.028;2023-04-26T00:59:07;92732.47;;;8.40;100.00
11345;BME280;5727;42.600;23.028;2023-04-26T01:01:35;92729.59;;;8.29;100.00
11345;BME280;5727;42.600;23.028;2023-04-26T01:04:03;92730.19;;;8.39;100.00
11345;BME280;5727;42.600;23.028;2023-04-26T01:06:32;92722.13;;;8.44;100.00
11345;BME280;5727;42.600;23.028;2023-04-26T01:09:02;92719.63;;;8.47;100.00
11345;BME280;5727;42.600;23.028;2023-04-26T01:11:32;92715.91;;;8.48;100.00
11345;BME280;5727;42.600;23.028;2023-04-26T01:14:01;92716.31;;;8.50;100.00
11345;BME280;5727;42.600;23.028;2023-04-26T01:16:28;92722.38;;;8.54;100.00
11345;BME280;5727;42.600;23.028;2023-04-26T01:18:56;92728.03;;;8.56;100.00
11345;BME280;5727;42.600;23.028;2023-04-26T01:21:23;92726.28;;;8.60;100.00
11345;BME280;5727;42.600;23.028;2023-04-26T01:23:51;92737.78;;;8.59;100.00
11345;BME280;5727;42.600;23.028;2023-04-26T01:26:18;92741.75;;;8.53;100.00
11345;BME280;5727;42.600;23.028;2023-04-26T01:28:45;92733.91;;;8.53;100.00
11345;BME280;5727;42.600;23.028;2023-04-26T01:31:13;92734.69;;;8.54;100.00
11345;BME280;5727;42.600;23.028;2023-04-26T01:33:40;92739.31;;;8.60;100.00
11345;BME280;5727;42.600;23.028;2023-04-26T01:36:07;92737.03;;;8.59;100.00
11345;BME280;5727;42.600;23.028;2023-04-26T01:38:35;92725.50;;;8.60;100.00
11345;BME280;5727;42.600;23.028;2023-04-26T01:41:03;92727.53;;;8.66;100.00
11345;BME280;5727;42.600;23.028;2023-04-26T01:43:30;92725.84;;;8.74;100.00
11345;BME280;5727;42.600;23.028;2023-04-26T01:45:56;92721.88;;;8.80;100.00
11345;BME280;5727;42.600;23.028;2023-04-26T01:48:23;92724.25;;;8.85;100.00
11345;BME280;5727;42.600;23.028;2023-04-26T01:50:50;92723.25;;;8.89;100.00
11345;BME280;5727;42.600;23.028;2023-04-26T01:53:17;92719.88;;;8.89;100.00
11345;BME280;5727;42.600;23.028;2023-04-26T01:55:44;92717.06;;;8.97;100.00
11345;BME280;5727;42.600;23.028;2023-04-26T01:58:12;92717.19;;;9.01;100.00
11345;BME280;5727;42.600;23.028;2023-04-26T02:00:38;92722.91;;;9.06;100.00
11345;BME280;5727;42.600;23.028;2023-04-26T02:03:05;92718.50;;;9.10;100.00
11345;BME280;5727;42.600;23.028;2023-04-26T02:05:32;92720.09;;;9.15;100.00
11345;BME280;5727;42.600;23.028;2023-04-26T02:07:59;92717.97;;;9.20;100.00
11345;BME280;5727;42.600;23.028;2023-04-26T02:10:25;92717.22;;;9.20;100.00
11345;BME280;5727;42.600;23.028;2023-04-26T02:12:52;92719.50;;;9.21;100.00
11345;BME280;5727;42.600;23.028;2023-04-26T02:15:20;92718.88;;;9.28;100.00
11345;BME280;5727;42.600;23.028;2023-04-26T02:17:47;92720.81;;;9.31;100.00
11345;BME280;5727;42.600;23.028;2023-04-26T02:20:14;92716.75;;;9.34;100.00
11345;BME280;5727;42.600;23.028;2023-04-26T02:22:40;92714.97;;;9.38;100.00
11345;BME280;5727;42.600;23.028;2023-04-26T02:25:07;92716.94;;;9.41;100.00
11345;BME280;5727;42.600;23.028;2023-04-26T02:27:35;92707.06;;;9.34;100.00
11345;BME280;5727;42.600;23.028;2023-04-26T02:30:03;92710.88;;;9.37;100.00
11345;BME280;5727;42.600;23.028;2023-04-26T02:32:31;92707.06;;;9.34;100.00
11345;BME280;5727;42.600;23.028;2023-04-26T02:34:58;92695.09;;;9.33;100.00
11345;BME280;5727;42.600;23.028;2023-04-26T02:37:25;92686.09;;;9.31;100.00
11345;BME280;5727;42.600;23.028;2023-04-26T02:39:52;92674.88;;;9.30;100.00
11345;BME280;5727;42.600;23.028;2023-04-26T02:42:18;92674.13;;;9.30;100.00
11345;BME280;5727;42.600;23.028;2023-04-26T02:44:45;92662.56;;;9.31;100.00
11345;BME280;5727;42.600;23.028;2023-04-26T02:47:12;92660.66;;;9.28;100.00
11345;BME280;5727;42.600;23.028;2023-04-26T02:49:40;92662.06;;;9.25;100.00
11345;BME280;5727;42.600;23.028;2023-04-26T02:52:07;92661.72;;;9.27;100.00
11345;BME280;5727;42.600;23.028;2023-04-26T02:54:33;92657.28;;;9.27;100.00
11345;BME280;5727;42.600;23.028;2023-04-26T02:57:00;92655.75;;;9.26;100.00
11345;BME280;5727;42.600;23.028;2023-04-26T02:59:27;92656.91;;;9.29;100.00
11345;BME280;5727;42.600;23.028;2023-04-26T03:01:54;92654.25;;;9.25;100.00
11345;BME280;5727;42.600;23.028;2023-04-26T03:04:22;92659.03;;;9.23;100.00
11345;BME280;5727;42.600;23.028;2023-04-26T03:06:50;92670.94;;;9.20;100.00
11345;BME280;5727;42.600;23.028;2023-04-26T03:09:17;92668.38;;;9.24;100.00
11345;BME280;5727;42.600;23.028;2023-04-26T03:11:43;92675.84;;;9.22;100.00
11345;BME280;5727;42.600;23.028;2023-04-26T03:14:10;92670.09;;;9.16;100.00
11345;BME280;5727;42.600;23.028;2023-04-26T03:16:40;92675.88;;;9.06;100.00
11345;BME280;5727;42.600;23.028;2023-04-26T03:19:07;92669.13;;;9.05;100.00
11345;BME280;5727;42.600;23.028;2023-04-26T03:21:34;92662.38;;;9.04;100.00
11345;BME280;5727;42.600;23.028;2023-04-26T03:24:02;92662.81;;;9.06;100.00
11345;BME280;5727;42.600;23.028;2023-04-26T03:26:29;92672.06;;;9.04;100.00
11345;BME280;5727;42.600;23.028;2023-04-26T03:28:56;92671.31;;;9.03;100.00
11345;BME280;5727;42.600;23.028;2023-04-26T03:31:23;92670.06;;;8.97;100.00
11345;BME280;5727;42.600;23.028;2023-04-26T03:33:50;92677.75;;;8.90;100.00
11345;BME280;5727;42.600;23.028;2023-04-26T03:36:17;92678.44;;;8.87;100.00
11345;BME280;5727;42.600;23.028;2023-04-26T03:38:43;92676.25;;;8.89;100.00
11345;BME280;5727;42.600;23.028;2023-04-26T03:41:12;92678.00;;;8.85;100.00
11345;BME280;5727;42.600;23.028;2023-04-26T03:43:38;92673.19;;;8.87;100.00
11345;BME280;5727;42.600;23.028;2023-04-26T03:46:05;92684.72;;;8.86;100.00
11345;BME280;5727;42.600;23.028;2023-04-26T03:48:32;92680.78;;;8.92;100.00
11345;BME280;5727;42.600;23.028;2023-04-26T03:50:58;92684.72;;;9.02;100.00
11345;BME280;5727;42.600;23.028;2023-04-26T03:53:25;92689.50;;;9.15;100.00
11345;BME280;5727;42.600;23.028;2023-04-26T03:55:52;92697.06;;;9.20;100.00
11345;BME280;5727;42.600;23.028;2023-04-26T03:58:20;92696.78;;;9.06;100.00
11345;BME280;5727;42.600;23.028;2023-04-26T04:00:46;92697.13;;;8.89;100.00
11345;BME280;5727;42.600;23.028;2023-04-26T04:03:13;92700.91;;;8.76;100.00
11345;BME280;5727;42.600;23.028;2023-04-26T04:05:40;92705.63;;;8.86;100.00
11345;BME280;5727;42.600;23.028;2023-04-26T04:08:07;92714.56;;;8.70;100.00
11345;BME280;5727;42.600;23.028;2023-04-26T04:10:34;92711.09;;;8.50;100.00
11345;BME280;5727;42.600;23.028;2023-04-26T04:13:02;92711.84;;;8.35;100.00
11345;BME280;5727;42.600;23.028;2023-04-26T04:15:30;92711.22;;;8.26;100.00
11345;BME280;5727;42.600;23.028;2023-04-26T04:17:57;92713.78;;;8.38;100.00
11345;BME280;5727;42.600;23.028;2023-04-26T04:20:24;92712.59;;;8.51;100.00
11345;BME280;5727;42.600;23.028;2023-04-26T04:22:51;92712.88;;;8.62;100.00
11345;BME280;5727;42.600;23.028;2023-04-26T04:25:18;92711.66;;;8.44;100.00
11345;BME280;5727;42.600;23.028;2023-04-26T04:27:47;92706.81;;;8.58;100.00
11345;BME280;5727;42.600;23.028;2023-04-26T04:30:14;92714.91;;;8.53;100.00
11345;BME280;5727;42.600;23.028;2023-04-26T04:32:42;92718.84;;;8.47;100.00
11345;BME280;5727;42.600;23.028;2023-04-26T04:35:11;92716.06;;;8.55;100.00
11345;BME280;5727;42.600;23.028;2023-04-26T04:37:37;92718.09;;;8.62;100.00
11345;BME280;5727;42.600;23.028;2023-04-26T04:40:05;92720.44;;;8.67;100.00
11345;BME280;5727;42.600;23.028;2023-04-26T04:42:35;92726.34;;;8.79;100.00
11345;BME280;5727;42.600;23.028;2023-04-26T04:45:02;92726.34;;;8.95;100.00
11345;BME280;5727;42.600;23.028;2023-04-26T04:47:29;92731.09;;;8.89;100.00
11345;BME280;5727;42.600;23.028;2023-04-26T04:49:57;92729.22;;;8.90;100.00
11345;BME280;5727;42.600;23.028;2023-04-26T04:52:24;92726.94;;;8.88;100.00
11345;BME280;5727;42.600;23.028;2023-04-26T04:54:51;92730.91;;;8.82;100.00
11345;BME280;5727;42.600;23.028;2023-04-26T04:57:18;92725.84;;;8.89;100.00
11345;BME280;5727;42.600;23.028;2023-04-26T04:59:44;92736.81;;;8.79;100.00
11345;BME280;5727;42.600;23.028;2023-04-26T05:02:11;92734.19;;;8.64;100.00
11345;BME280;5727;42.600;23.028;2023-04-26T05:04:38;92729.97;;;8.59;100.00
11345;BME280;5727;42.600;23.028;2023-04-26T05:07:06;92732.91;;;8.42;100.00
11345;BME280;5727;42.600;23.028;2023-04-26T05:09:33;92736.00;;;8.48;100.00
11345;BME280;5727;42.600;23.028;2023-04-26T05:12:01;92731.91;;;8.47;100.00
11345;BME280;5727;42.600;23.028;2023-04-26T05:14:29;92743.28;;;8.54;100.00
11345;BME280;5727;42.600;23.028;2023-04-26T05:16:57;92737.72;;;8.71;100.00
11345;BME280;5727;42.600;23.028;2023-04-26T05:19:24;92738.81;;;8.86;100.00
11345;BME280;5727;42.600;23.028;2023-04-26T05:21:50;92743.94;;;8.98;100.00
11345;BME280;5727;42.600;23.028;2023-04-26T05:24:19;92743.78;;;9.06;100.00
11345;BME280;5727;42.600;23.028;2023-04-26T05:26:45;92742.03;;;8.95;100.00
11345;BME280;5727;42.600;23.028;2023-04-26T05:29:12;92746.72;;;9.05;100.00
11345;BME280;5727;42.600;23.028;2023-04-26T05:31:39;92735.31;;;9.29;100.00
11345;BME280;5727;42.600;23.028;2023-04-26T05:34:06;92738.81;;;9.52;100.00
11345;BME280;5727;42.600;23.028;2023-04-26T05:36:32;92729.56;;;9.73;100.00
11345;BME280;5727;42.600;23.028;2023-04-26T05:38:59;92732.59;;;9.75;100.00
11345;BME280;5727;42.600;23.028;2023-04-26T05:41:27;92740.16;;;9.99;100.00
11345;BME280;5727;42.600;23.028;2023-04-26T05:43:54;92743.09;;;10.13;100.00
11345;BME280;5727;42.600;23.028;2023-04-26T05:46:21;92744.72;;;10.41;100.00
11345;BME280;5727;42.600;23.028;2023-04-26T05:48:48;92741.38;;;10.63;100.00
11345;BME280;5727;42.600;23.028;2023-04-26T05:51:15;92746.88;;;10.77;100.00
11345;BME280;5727;42.600;23.028;2023-04-26T05:53:41;92754.06;;;10.83;100.00
11345;BME280;5727;42.600;23.028;2023-04-26T05:56:08;92758.69;;;10.90;100.00
11345;BME280;5727;42.600;23.028;2023-04-26T05:58:36;92756.97;;;11.01;100.00
11345;BME280;5727;42.600;23.028;2023-04-26T06:01:03;92754.66;;;11.19;100.00
11345;BME280;5727;42.600;23.028;2023-04-26T06:03:30;92760.59;;;11.16;100.00
11345;BME280;5727;42.600;23.028;2023-04-26T06:05:58;92763.00;;;11.28;100.00
11345;BME280;5727;42.600;23.028;2023-04-26T06:08:25;92759.25;;;11.25;100.00
11345;BME280;5727;42.600;23.028;2023-04-26T06:10:52;92760.16;;;11.36;100.00
11345;BME280;5727;42.600;23.028;2023-04-26T06:13:19;92757.31;;;11.45;100.00
11345;BME280;5727;42.600;23.028;2023-04-26T06:15:47;92766.47;;;11.58;100.00
11345;BME280;5727;42.600;23.028;2023-04-26T06:18:14;92768.78;;;11.63;100.00
11345;BME280;5727;42.600;23.028;2023-04-26T06:20:41;92768.22;;;11.73;100.00
11345;BME280;5727;42.600;23.028;2023-04-26T06:23:07;92769.63;;;11.67;100.00
11345;BME280;5727;42.600;23.028;2023-04-26T06:25:34;92770.31;;;11.64;100.00
11345;BME280;5727;42.600;23.028;2023-04-26T06:28:01;92762.88;;;11.66;100.00
11345;BME280;5727;42.600;23.028;2023-04-26T06:30:28;92771.03;;;11.64;100.00
11345;BME280;5727;42.600;23.028;2023-04-26T06:32:56;92775.47;;;11.83;100.00
11345;BME280;5727;42.600;23.028;2023-04-26T06:35:25;92776.38;;;11.94;100.00
11345;BME280;5727;42.600;23.028;2023-04-26T06:37:51;92780.44;;;11.91;100.00
11345;BME280;5727;42.600;23.028;2023-04-26T06:40:18;92777.53;;;11.97;100.00
11345;BME280;5727;42.600;23.028;2023-04-26T06:42:46;92785.25;;;11.86;100.00
11345;BME280;5727;42.600;23.028;2023-04-26T06:45:13;92777.78;;;11.62;100.00
11345;BME280;5727;42.600;23.028;2023-04-26T06:47:40;92785.19;;;11.56;100.00
11345;BME280;5727;42.600;23.028;2023-04-26T06:50:09;92790.31;;;11.49;100.00
11345;BME280;5727;42.600;23.028;2023-04-26T06:52:36;92797.41;;;11.23;100.00
11345;BME280;5727;42.600;23.028;2023-04-26T06:55:03;92791.41;;;11.22;100.00
11345;BME280;5727;42.600;23.028;2023-04-26T06:57:31;92797.75;;;11.21;100.00
11345;BME280;5727;42.600;23.028;2023-04-26T06:59:58;92801.31;;;11.10;100.00
11345;BME280;5727;42.600;23.028;2023-04-26T07:02:24;92810.50;;;11.23;100.00
11345;BME280;5727;42.600;23.028;2023-04-26T07:04:51;92813.78;;;11.39;100.00
11345;BME280;5727;42.600;23.028;2023-04-26T07:07:19;92824.34;;;11.20;100.00
11345;BME280;5727;42.600;23.028;2023-04-26T07:09:46;92822.34;;;10.90;100.00
11345;BME280;5727;42.600;23.028;2023-04-26T07:12:13;92829.66;;;10.81;100.00
11345;BME280;5727;42.600;23.028;2023-04-26T07:14:40;92824.34;;;10.78;100.00
11345;BME280;5727;42.600;23.028;2023-04-26T07:17:07;92825.91;;;10.82;100.00
11345;BME280;5727;42.600;23.028;2023-04-26T07:19:34;92844.28;;;10.63;100.00
11345;BME280;5727;42.600;23.028;2023-04-26T07:22:01;92829.28;;;10.60;100.00
11345;BME280;5727;42.600;23.028;2023-04-26T07:24:32;92830.28;;;10.56;100.00
11345;BME280;5727;42.600;23.028;2023-04-26T07:27:02;92829.47;;;10.71;100.00
11345;BME280;5727;42.600;23.028;2023-04-26T07:29:31;92831.28;;;10.89;100.00
11345;BME280;5727;42.600;23.028;2023-04-26T07:31:57;92827.41;;;11.02;100.00
11345;BME280;5727;42.600;23.028;2023-04-26T07:34:26;92824.59;;;11.15;100.00
11345;BME280;5727;42.600;23.028;2023-04-26T07:36:53;92828.75;;;11.16;100.00
11345;BME280;5727;42.600;23.028;2023-04-26T07:39:20;92837.03;;;11.18;100.00
11345;BME280;5727;42.600;23.028;2023-04-26T07:41:49;92840.47;;;11.44;100.00
11345;BME280;5727;42.600;23.028;2023-04-26T07:44:16;92840.41;;;11.41;100.00
11345;BME280;5727;42.600;23.028;2023-04-26T07:46:43;92837.66;;;11.34;100.00
11345;BME280;5727;42.600;23.028;2023-04-26T07:49:10;92843.66;;;11.12;100.00
11345;BME280;5727;42.600;23.028;2023-04-26T07:51:37;92830.72;;;11.22;100.00
11345;BME280;5727;42.600;23.028;2023-04-26T07:54:05;92850.47;;;11.16;100.00
11345;BME280;5727;42.600;23.028;2023-04-26T07:56:32;92840.78;;;10.97;100.00
11345;BME280;5727;42.600;23.028;2023-04-26T07:59:00;92836.72;;;11.23;100.00
11345;BME280;5727;42.600;23.028;2023-04-26T08:01:29;92838.19;;;11.20;100.00
11345;BME280;5727;42.600;23.028;2023-04-26T08:03:57;92847.16;;;10.96;100.00
11345;BME280;5727;42.600;23.028;2023-04-26T08:06:25;92841.84;;;10.93;100.00
11345;BME280;5727;42.600;23.028;2023-04-26T08:08:53;92844.53;;;11.19;100.00
11345;BME280;5727;42.600;23.028;2023-04-26T08:11:20;92837.03;;;11.18;100.00
11345;BME280;5727;42.600;23.028;2023-04-26T08:13:48;92844.03;;;11.10;100.00
11345;BME280;5727;42.600;23.028;2023-04-26T08:16:17;92835.69;;;11.27;100.00
11345;BME280;5727;42.600;23.028;2023-04-26T08:18:44;92835.31;;;11.51;100.00
11345;BME280;5727;42.600;23.028;2023-04-26T08:21:12;92832.94;;;11.65;100.00
11345;BME280;5727;42.600;23.028;2023-04-26T08:23:40;92827.66;;;11.88;100.00
11345;BME280;5727;42.600;23.028;2023-04-26T08:26:07;92852.84;;;11.70;98.33
11345;BME280;5727;42.600;23.028;2023-04-26T08:28:35;92853.03;;;11.80;89.05
11345;BME280;5727;42.600;23.028;2023-04-26T08:31:03;92821.50;;;11.77;87.37
11345;BME280;5727;42.600;23.028;2023-04-26T08:33:32;92828.59;;;11.76;86.36
11345;BME280;5727;42.600;23.028;2023-04-26T08:36:00;92825.94;;;11.73;88.84
11345;BME280;5727;42.600;23.028;2023-04-26T08:38:27;92827.84;;;12.02;88.98
11345;BME280;5727;42.600;23.028;2023-04-26T08:40:58;92830.25;;;12.14;86.49
11345;BME280;5727;42.600;23.028;2023-04-26T08:43:30;92839.25;;;12.13;85.37
11345;BME280;5727;42.600;23.028;2023-04-26T08:45:57;92828.88;;;12.24;84.98
11345;BME280;5727;42.600;23.028;2023-04-26T08:48:27;92841.03;;;12.35;82.84
11345;BME280;5727;42.600;23.028;2023-04-26T08:51:02;92838.47;;;12.39;79.48
11345;BME280;5727;42.600;23.028;2023-04-26T08:53:30;92830.50;;;12.35;80.21
11345;BME280;5727;42.600;23.028;2023-04-26T08:56:01;92842.41;;;12.26;81.75
11345;BME280;5727;42.600;23.028;2023-04-26T08:58:28;92842.19;;;12.38;77.31
11345;BME280;5727;42.600;23.028;2023-04-26T09:00:55;92846.19;;;11.99;77.55
11345;BME280;5727;42.600;23.028;2023-04-26T09:03:22;92835.97;;;11.93;80.04
11345;BME280;5727;42.600;23.028;2023-04-26T09:05:51;92840.28;;;12.09;79.14
11345;BME280;5727;42.600;23.028;2023-04-26T09:08:20;92840.69;;;12.11;78.49
11345;BME280;5727;42.600;23.028;2023-04-26T09:10:47;92844.00;;;11.78;79.15
11345;BME280;5727;42.600;23.028;2023-04-26T09:13:14;92838.16;;;11.88;80.53
11345;BME280;5727;42.600;23.028;2023-04-26T09:15:41;92839.34;;;11.94;80.35
11345;BME280;5727;42.600;23.028;2023-04-26T09:18:18;92842.28;;;12.15;79.30
11345;BME280;5727;42.600;23.028;2023-04-26T09:20:45;92838.31;;;12.28;75.90
11345;BME280;5727;42.600;23.028;2023-04-26T09:23:29;92843.34;;;12.40;74.08
11345;BME280;5727;42.600;23.028;2023-04-26T09:26:14;92846.38;;;12.42;72.97
11345;BME280;5727;42.600;23.028;2023-04-26T09:28:40;92844.41;;;12.36;76.97
11345;BME280;5727;42.600;23.028;2023-04-26T09:31:07;92835.09;;;12.42;76.43
11345;BME280;5727;42.600;23.028;2023-04-26T09:33:34;92829.44;;;12.69;76.63
11345;BME280;5727;42.600;23.028;2023-04-26T09:36:10;92843.69;;;12.68;72.25
11345;BME280;5727;42.600;23.028;2023-04-26T09:38:42;92843.03;;;12.78;70.41
11345;BME280;5727;42.600;23.028;2023-04-26T09:41:08;92852.28;;;12.65;73.87
11345;BME280;5727;42.600;23.028;2023-04-26T09:43:36;92841.09;;;12.72;75.60
11345;BME280;5727;42.600;23.028;2023-04-26T09:46:03;92836.34;;;12.84;70.49
11345;BME280;5727;42.600;23.028;2023-04-26T09:48:32;92832.94;;;12.80;68.07
11345;BME280;5727;42.600;23.028;2023-04-26T09:51:09;92825.59;;;12.97;69.46
11345;BME280;5727;42.600;23.028;2023-04-26T09:53:38;92812.38;;;13.30;69.04
11345;BME280;5727;42.600;23.028;2023-04-26T09:56:08;92816.56;;;13.34;67.92
11345;BME280;5727;42.600;23.028;2023-04-26T09:58:36;92823.44;;;13.46;67.65
11345;BME280;5727;42.600;23.028;2023-04-26T10:01:04;92830.75;;;13.23;64.46
11345;BME280;5727;42.600;23.028;2023-04-26T10:03:32;92824.09;;;13.36;66.55
11345;BME280;5727;42.600;23.028;2023-04-26T10:06:00;92819.34;;;13.52;64.60
11345;BME280;5727;42.600;23.028;2023-04-26T10:08:27;92815.84;;;13.88;64.39
11345;BME280;5727;42.600;23.028;2023-04-26T10:10:54;92812.84;;;13.93;63.16
11345;BME280;5727;42.600;23.028;2023-04-26T10:13:22;92800.09;;;13.95;64.59
11345;BME280;5727;42.600;23.028;2023-04-26T10:15:51;92811.81;;;14.08;61.24
11345;BME280;5727;42.600;23.028;2023-04-26T10:18:18;92806.53;;;14.05;64.14
11345;BME280;5727;42.600;23.028;2023-04-26T10:20:47;92815.34;;;13.72;61.60
11345;BME280;5727;42.600;23.028;2023-04-26T10:23:19;92818.00;;;13.75;62.84
11345;BME280;5727;42.600;23.028;2023-04-26T10:25:47;92813.75;;;13.60;62.23
11345;BME280;5727;42.600;23.028;2023-04-26T10:28:14;92810.59;;;13.41;63.16
11345;BME280;5727;42.600;23.028;2023-04-26T10:30:56;92826.28;;;13.27;64.48
11345;BME280;5727;42.600;23.028;2023-04-26T10:33:23;92823.63;;;13.23;64.93
11345;BME280;5727;42.600;23.028;2023-04-26T10:36:07;92817.88;;;13.14;64.08
11345;BME280;5727;42.600;23.028;2023-04-26T10:38:35;92822.81;;;12.82;64.58
11345;BME280;5727;42.600;23.028;2023-04-26T10:41:35;92816.59;;;12.64;65.54
11345;BME280;5727;42.600;23.028;2023-04-26T10:44:38;92816.91;;;12.93;64.93
11345;BME280;5727;42.600;23.028;2023-04-26T10:47:20;92812.19;;;13.09;59.83
11345;BME280;5727;42.600;23.028;2023-04-26T10:49:47;92808.63;;;12.91;61.46
11345;BME280;5727;42.600;23.028;2023-04-26T10:52:14;92815.22;;;12.77;62.00
11345;BME280;5727;42.600;23.028;2023-04-26T10:54:52;92832.31;;;13.27;62.99
11345;BME280;5727;42.600;23.028;2023-04-26T10:57:20;92820.75;;;13.39;60.97
11345;BME280;5727;42.600;23.028;2023-04-26T11:03:04;92812.69;;;13.18;69.75
11345;BME280;5727;42.600;23.028;2023-04-26T11:05:37;92816.94;;;13.33;68.47
11345;BME280;5727;42.600;23.028;2023-04-26T11:08:07;92813.97;;;13.38;66.76
11345;BME280;5727;42.600;23.028;2023-04-26T11:10:40;92816.81;;;13.66;66.28
11345;BME280;5727;42.600;23.028;2023-04-26T11:13:07;92820.56;;;13.65;65.12
11345;BME280;5727;42.600;23.028;2023-04-26T11:15:34;92819.13;;;13.74;63.38
11345;BME280;5727;42.600;23.028;2023-04-26T11:18:03;92814.78;;;13.49;62.11
11345;BME280;5727;42.600;23.028;2023-04-26T11:20:30;92815.94;;;13.51;64.00
11345;BME280;5727;42.600;23.028;2023-04-26T11:22:57;92823.25;;;13.25;68.04
11345;BME280;5727;42.600;23.028;2023-04-26T11:25:24;92859.13;;;12.73;69.97
11345;BME280;5727;42.600;23.028;2023-04-26T11:27:59;92818.84;;;12.99;71.70
11345;BME280;5727;42.600;23.028;2023-04-26T11:30:27;92828.13;;;12.89;71.66
11345;BME280;5727;42.600;23.028;2023-04-26T11:32:55;92822.09;;;12.85;71.60
11345;BME280;5727;42.600;23.028;2023-04-26T11:35:23;92825.84;;;12.84;72.17
11345;BME280;5727;42.600;23.028;2023-04-26T11:37:50;92817.91;;;12.81;73.28
11345;BME280;5727;42.600;23.028;2023-04-26T11:40:18;92833.47;;;12.97;72.01
11345;BME280;5727;42.600;23.028;2023-04-26T11:42:44;92828.47;;;13.18;71.11
11345;BME280;5727;42.600;23.028;2023-04-26T11:45:13;92825.28;;;13.42;67.80
11345;BME280;5727;42.600;23.028;2023-04-26T11:47:40;92831.00;;;13.54;68.13
11345;BME280;5727;42.600;23.028;2023-04-26T11:50:08;92824.63;;;13.55;66.27
11345;BME280;5727;42.600;23.028;2023-04-26T11:52:37;92811.28;;;13.31;67.82
11345;BME280;5727;42.600;23.028;2023-04-26T11:55:06;92836.16;;;13.40;68.76
11345;BME280;5727;42.600;23.028;2023-04-26T11:57:34;92836.06;;;13.30;68.46
11345;BME280;5727;42.600;23.028;2023-04-26T12:00:09;92821.63;;;13.13;68.46
11345;BME280;5727;42.600;23.028;2023-04-26T12:02:39;92828.38;;;13.11;68.36
11345;BME280;5727;42.600;23.028;2023-04-26T12:05:09;92826.34;;;13.01;70.15
11345;BME280;5727;42.600;23.028;2023-04-26T12:07:37;92841.56;;;13.14;69.52
11345;BME280;5727;42.600;23.028;2023-04-26T12:10:14;92823.34;;;12.99;70.49
11345;BME280;5727;42.600;23.028;2023-04-26T12:12:46;92819.88;;;12.91;70.97
11345;BME280;5727;42.600;23.028;2023-04-26T12:15:14;92817.09;;;13.10;71.20
11345;BME280;5727;42.600;23.028;2023-04-26T12:17:51;92820.38;;;13.00;69.87
11345;BME280;5727;42.600;23.028;2023-04-26T12:20:18;92817.94;;;13.18;69.48
11345;BME280;5727;42.600;23.028;2023-04-26T12:23:00;92828.44;;;12.81;65.86
11345;BME280;5727;42.600;23.028;2023-04-26T12:25:27;92825.41;;;12.79;66.53
11345;BME280;5727;42.600;23.028;2023-04-26T12:27:55;92836.59;;;12.72;68.15
11345;BME280;5727;42.600;23.028;2023-04-26T12:30:22;92829.63;;;12.87;67.52
11345;BME280;5727;42.600;23.028;2023-04-26T12:32:48;92831.00;;;12.77;66.69
11345;BME280;5727;42.600;23.028;2023-04-26T12:35:15;92817.59;;;12.86;68.36
11345;BME280;5727;42.600;23.028;2023-04-26T12:37:42;92814.91;;;13.16;68.67
11345;BME280;5727;42.600;23.028;2023-04-26T12:40:11;92809.53;;;13.49;67.27
11345;BME280;5727;42.600;23.028;2023-04-26T12:42:38;92809.09;;;13.91;67.15
11345;BME280;5727;42.600;23.028;2023-04-26T12:45:06;92800.41;;;13.83;63.56
11345;BME280;5727;42.600;23.028;2023-04-26T12:47:33;92811.75;;;13.98;64.06
11345;BME280;5727;42.600;23.028;2023-04-26T12:50:00;92809.34;;;13.71;62.95
11345;BME280;5727;42.600;23.028;2023-04-26T12:52:27;92808.97;;;13.73;63.41
11345;BME280;5727;42.600;23.028;2023-04-26T12:54:53;92806.66;;;13.68;66.39
11345;BME280;5727;42.600;23.028;2023-04-26T12:57:21;92810.03;;;13.65;68.92
11345;BME280;5727;42.600;23.028;2023-04-26T12:59:48;92803.66;;;13.19;69.99
11345;BME280;5727;42.600;23.028;2023-04-26T13:02:15;92808.97;;;13.73;70.35
11345;BME280;5727;42.600;23.028;2023-04-26T13:04:42;92811.38;;;13.45;67.21
11345;BME280;5727;42.600;23.028;2023-04-26T13:07:08;92821.34;;;13.65;68.06